Time;durP1;ratioP1;P1;durP2;ratioP2;P2;SDS_P1;SDS_P2;PMS_P1;PMS_P2;Temp;Humidity;BMP_temperature;BMP_pressure;BME280_temperature;BME280_humidity;BME280_pressure;Samples;Min_cycle;Max_cycle;Signal;HPM_P1;HPM_P2
2021/12/16 00:09:31;;;;;;;17.45;6.15;;;;;;;7.13;100.00;103210.28;5034022;28;20039;-75
2021/12/16 00:29:00;;;;;;;17.13;5.78;;;;;;;7.24;100.00;103201.91;5037350;28;20546;-74
2021/12/16 00:33:44;;;;;;;11.43;5.10;;;;;;;7.21;100.00;103209.00;5037043;28;20040;-75
2021/12/16 00:36:12;;;;;;;12.60;5.63;;;;;;;7.31;100.00;103214.69;5027177;28;20033;-75
2021/12/16 00:38:39;;;;;;;13.68;5.43;;;;;;;7.26;100.00;103202.69;5044384;28;20028;-75
2021/12/16 00:41:05;;;;;;;11.55;5.50;;;;;;;7.34;100.00;103208.47;5038008;28;20064;-76
2021/12/16 00:43:42;;;;;;;15.27;6.22;;;;;;;7.35;100.00;103213.63;5047669;28;20014;-76
2021/12/16 00:54:13;;;;;;;14.32;6.40;;;;;;;7.39;100.00;103222.22;5042252;28;20136;-75
2021/12/16 00:56:43;;;;;;;10.30;5.95;;;;;;;7.39;100.00;103220.44;5043541;28;20056;-75
2021/12/16 00:59:10;;;;;;;12.20;6.03;;;;;;;7.41;100.00;103215.13;5043017;28;20044;-76
2021/12/16 01:01:48;;;;;;;21.73;7.28;;;;;;;7.43;100.00;103212.44;5049283;28;20466;-76
2021/12/16 01:34:06;;;;;;;11.70;5.60;;;;;;;7.55;100.00;103254.72;5046586;28;20087;-75
2021/12/16 01:39:35;;;;;;;14.10;6.00;;;;;;;7.48;100.00;103248.06;5046618;28;20146;-74
2021/12/16 01:42:23;;;;;;;11.15;5.90;;;;;;;7.53;100.00;103259.19;5050160;28;20021;-75
2021/12/16 01:50:29;;;;;;;13.73;6.75;;;;;;;7.45;100.00;103248.22;4993051;28;20554;-75
2021/12/16 01:56:03;;;;;;;13.13;7.38;;;;;;;7.61;100.00;103269.38;4987410;28;20472;-75
2021/12/16 01:58:32;;;;;;;16.55;7.40;;;;;;;7.60;100.00;103273.78;4986875;28;20093;-75
2021/12/16 02:01:14;;;;;;;17.35;6.35;;;;;;;7.59;100.00;103276.47;4989337;28;20046;-75
2021/12/16 02:04:02;;;;;;;19.73;6.50;;;;;;;7.52;100.00;103270.66;4988111;28;20045;-75
2021/12/16 02:08:58;;;;;;;18.65;6.53;;;;;;;7.53;100.00;103266.25;4985297;28;20367;-75
2021/12/16 02:35:33;;;;;;;11.82;5.28;;;;;;;7.59;100.00;103273.84;5042923;28;20080;-76
2021/12/16 02:38:03;;;;;;;13.93;5.50;;;;;;;7.59;100.00;103264.19;5040749;28;20025;-75
2021/12/16 02:40:28;;;;;;;11.40;5.22;;;;;;;7.60;100.00;103262.44;5040016;28;20381;-75
2021/12/16 02:48:30;;;;;;;13.32;6.30;;;;;;;7.52;100.00;103254.03;5039786;28;20474;-76
2021/12/16 02:51:18;;;;;;;12.20;5.78;;;;;;;7.60;100.00;103278.19;5040310;28;20087;-75
2021/12/16 02:53:50;;;;;;;9.88;4.88;;;;;;;7.60;100.00;103272.94;5037876;28;20128;-75
2021/12/16 02:56:16;;;;;;;14.10;5.03;;;;;;;7.60;100.00;103275.56;5056118;28;20037;-75
2021/12/16 02:58:45;;;;;;;12.25;4.95;;;;;;;7.59;100.00;103276.47;5046932;28;20035;-75
2021/12/16 03:01:43;;;;;;;15.45;5.15;;;;;;;7.49;100.00;103254.16;5037329;28;20028;-75
2021/12/16 03:04:13;;;;;;;14.30;4.88;;;;;;;7.54;100.00;103276.69;5045060;28;20063;-75
2021/12/16 03:06:40;;;;;;;13.82;5.82;;;;;;;7.57;100.00;103279.16;5047803;28;20029;-75
2021/12/16 03:09:08;;;;;;;13.10;4.78;;;;;;;7.49;100.00;103259.41;5039027;28;20654;-75
2021/12/16 03:19:15;;;;;;;8.75;4.53;;;;;;;7.55;100.00;103294.16;5043960;28;20041;-75
2021/12/16 03:21:49;;;;;;;10.32;4.13;;;;;;;7.52;100.00;103299.56;5040537;28;20032;-75
2021/12/16 03:37:41;;;;;;;;;;;;;;;7.26;100.00;103305.97;5041562;28;20029;-75
2021/12/16 03:40:11;;;;;;;13.93;4.65;;;;;;;7.22;100.00;103322.78;5042285;28;19916;-75
2021/12/16 03:42:41;;;;;;;8.63;3.80;;;;;;;7.17;100.00;103314.28;5044337;28;20509;-75
2021/12/16 03:48:32;;;;;;;13.27;4.90;;;;;;;7.08;100.00;103314.69;5043160;28;20039;-75
2021/12/16 03:50:58;;;;;;;10.35;5.00;;;;;;;7.05;100.00;103318.28;5047323;28;20060;-75
2021/12/16 03:53:25;;;;;;;10.80;5.43;;;;;;;7.04;100.00;103318.34;5039839;28;20451;-75
2021/12/16 03:55:51;;;;;;;16.50;5.60;;;;;;;6.94;100.00;103299.50;5039566;28;20087;-75
2021/12/16 03:58:17;;;;;;;12.13;5.20;;;;;;;7.02;100.00;103317.56;5041573;28;20045;-76
2021/12/16 04:00:52;;;;;;;12.05;5.47;;;;;;;7.02;100.00;103328.91;5038809;28;20052;-75
2021/12/16 04:03:18;;;;;;;16.55;6.07;;;;;;;7.05;100.00;103322.69;5044735;28;20024;-75
2021/12/16 04:05:45;;;;;;;13.23;5.78;;;;;;;7.04;100.00;103332.34;5044848;28;20063;-75
2021/12/16 04:08:11;;;;;;;15.65;5.07;;;;;;;7.05;100.00;103341.06;5041846;28;20104;-75
2021/12/16 04:10:59;;;;;;;13.18;5.53;;;;;;;7.06;100.00;103345.41;5040262;28;20035;-75
2021/12/16 04:13:25;;;;;;;9.60;4.82;;;;;;;7.08;100.00;103359.31;5042015;28;20538;-75
2021/12/16 04:15:50;;;;;;;15.65;4.93;;;;;;;7.04;100.00;103357.75;5038098;28;20104;-75
2021/12/16 04:18:16;;;;;;;11.73;6.03;;;;;;;7.11;100.00;103351.31;5049698;28;20033;-75
2021/12/16 04:20:42;;;;;;;10.55;5.40;;;;;;;7.10;100.00;103349.56;5040694;28;20120;-75
2021/12/16 04:23:10;;;;;;;13.23;4.47;;;;;;;7.09;100.00;103350.50;5034951;28;20095;-74
2021/12/16 04:25:39;;;;;;;10.43;5.53;;;;;;;7.12;100.00;103360.88;5041001;28;20021;-76
2021/12/16 04:28:12;;;;;;;12.27;5.13;;;;;;;7.14;100.00;103361.66;5034264;28;20029;-75
2021/12/16 04:30:38;;;;;;;14.52;5.43;;;;;;;7.15;100.00;103360.75;5034786;28;20474;-75
2021/12/16 04:33:04;;;;;;;12.02;5.05;;;;;;;7.14;100.00;103364.28;5042769;28;20039;-76
2021/12/16 04:35:29;;;;;;;18.20;6.07;;;;;;;7.10;100.00;103367.97;5045417;28;20028;-75
2021/12/16 04:37:55;;;;;;;14.68;6.30;;;;;;;7.08;100.00;103369.81;5045862;28;20404;-75
2021/12/16 04:40:21;;;;;;;14.98;5.43;;;;;;;7.06;100.00;103366.41;5051693;28;20025;-75
2021/12/16 04:42:48;;;;;;;9.20;4.80;;;;;;;6.99;100.00;103381.56;5042121;28;20037;-75
2021/12/16 04:45:17;;;;;;;10.48;5.10;;;;;;;6.95;100.00;103380.84;5044580;28;20051;-75
2021/12/16 04:47:43;;;;;;;14.30;5.38;;;;;;;6.92;100.00;103378.31;5044506;28;20029;-75
2021/12/16 04:50:10;;;;;;;19.60;5.60;;;;;;;6.87;100.00;103380.28;5050492;28;20083;-75
2021/12/16 04:52:37;;;;;;;10.55;4.82;;;;;;;6.79;100.00;103379.75;5049132;28;20488;-75
2021/12/16 04:55:06;;;;;;;22.08;6.43;;;;;;;6.76;100.00;103383.38;5046767;28;20079;-75
2021/12/16 04:57:31;;;;;;;14.70;5.95;;;;;;;6.50;100.00;103357.34;5050354;28;20052;-75
2021/12/16 04:59:57;;;;;;;11.68;5.00;;;;;;;6.37;100.00;103351.72;5045008;28;20375;-75
2021/12/16 05:02:24;;;;;;;17.02;5.35;;;;;;;6.47;100.00;103379.31;5046986;28;20512;-75
2021/12/16 05:04:50;;;;;;;15.65;4.75;;;;;;;6.56;100.00;103402.53;5044427;28;20028;-75
2021/12/16 05:07:16;;;;;;;7.93;4.22;;;;;;;6.55;100.00;103399.97;5042052;28;20032;-75
2021/12/16 05:12:12;;;;;;;11.20;3.95;;;;;;;6.50;100.00;103415.91;5049750;28;20044;-75
2021/12/16 05:14:38;;;;;;;12.85;5.03;;;;;;;6.35;100.00;103403.38;5040764;28;20059;-75
2021/12/16 05:17:22;;;;;;;11.05;4.72;;;;;;;6.42;100.00;103423.22;5041906;28;20033;-75
2021/12/16 05:19:50;;;;;;;11.85;5.68;;;;;;;6.40;100.00;103430.28;5045896;28;20033;-75
2021/12/16 05:25:00;;;;;;;10.48;5.15;;;;;;;6.31;100.00;103426.25;5042989;28;20047;-75
2021/12/16 05:27:26;;;;;;;7.85;5.18;;;;;;;6.27;100.00;103429.03;5043482;28;20033;-75
2021/12/16 05:29:51;;;;;;;12.30;5.80;;;;;;;6.19;100.00;103426.72;5044750;28;20017;-76
2021/12/16 05:32:17;;;;;;;11.88;5.20;;;;;;;6.17;100.00;103429.41;5045289;28;20043;-75
2021/12/16 05:34:42;;;;;;;10.73;5.07;;;;;;;6.11;100.00;103434.03;5042291;28;20036;-75
2021/12/16 05:37:08;;;;;;;11.23;4.75;;;;;;;6.14;100.00;103445.25;5043511;28;20056;-76
2021/12/16 05:39:34;;;;;;;11.30;4.63;;;;;;;6.05;100.00;103429.00;5042732;28;20033;-75
2021/12/16 05:42:00;;;;;;;9.07;4.78;;;;;;;6.07;100.00;103441.13;5044374;28;20160;-76
2021/12/16 05:44:25;;;;;;;12.05;4.50;;;;;;;6.03;100.00;103444.81;5045146;28;20564;-75
2021/12/16 05:46:51;;;;;;;8.93;4.63;;;;;;;6.01;100.00;103453.63;5042120;28;20033;-75
2021/12/16 05:49:16;;;;;;;7.53;4.90;;;;;;;5.98;100.00;103459.84;5037859;28;20442;-75
2021/12/16 05:51:44;;;;;;;9.40;6.35;;;;;;;5.94;100.00;103463.44;5041927;28;20519;-76
2021/12/16 05:54:11;;;;;;;11.20;4.80;;;;;;;5.94;100.00;103463.44;5039939;28;20107;-75
2021/12/16 05:56:39;;;;;;;8.95;5.60;;;;;;;5.92;100.00;103462.63;5045138;28;20066;-75
2021/12/16 05:59:06;;;;;;;11.52;4.93;;;;;;;5.92;100.00;103449.53;5034228;28;20045;-75
2021/12/16 06:01:35;;;;;;;12.02;4.70;;;;;;;5.92;100.00;103463.53;5038797;28;20037;-75
2021/12/16 06:04:01;;;;;;;9.30;4.40;;;;;;;5.92;100.00;103457.41;5043982;28;20059;-75
2021/12/16 06:06:28;;;;;;;10.25;4.32;;;;;;;5.88;100.00;103461.91;5038386;28;20040;-75
2021/12/16 06:08:56;;;;;;;8.70;4.47;;;;;;;5.82;100.00;103466.53;5038874;28;20033;-75
2021/12/16 06:11:26;;;;;;;8.15;4.75;;;;;;;5.80;100.00;103465.72;5045240;28;20039;-75
2021/12/16 06:14:22;;;;;;;12.43;5.35;;;;;;;5.74;100.00;103462.38;5041966;28;20037;-75
2021/12/16 06:23:08;;;;;;;10.90;4.90;;;;;;;5.72;100.00;103463.34;5038702;28;20084;-76
2021/12/16 06:28:06;;;;;;;19.50;6.53;;;;;;;5.57;100.00;103449.03;5040253;28;20895;-75
2021/12/16 06:30:36;;;;;;;8.75;5.57;;;;;;;5.37;100.00;103431.38;5040091;28;20516;-76
2021/12/16 06:33:04;;;;;;;9.02;4.70;;;;;;;5.56;100.00;103463.91;5038167;28;20022;-76
2021/12/16 06:35:30;;;;;;;21.88;5.68;;;;;;;5.60;100.00;103463.81;5042688;28;20036;-75
2021/12/16 06:37:55;;;;;;;12.00;5.60;;;;;;;5.65;100.00;103470.56;5040120;28;20034;-75
2021/12/16 06:40:21;;;;;;;15.27;6.70;;;;;;;5.69;100.00;103479.19;5033882;28;20039;-75
2021/12/16 06:42:49;;;;;;;14.70;6.38;;;;;;;5.70;100.00;103476.50;5040530;28;20062;-75
2021/12/16 06:45:17;;;;;;;12.43;6.72;;;;;;;5.63;100.00;103455.81;5044417;28;20029;-76
2021/12/16 06:47:51;;;;;;;15.85;6.07;;;;;;;5.74;100.00;103472.88;5022167;28;20028;-75
2021/12/16 06:50:32;;;;;;;12.20;5.70;;;;;;;5.66;100.00;103464.44;5038677;28;20437;-76
2021/12/16 06:53:01;;;;;;;11.32;6.45;;;;;;;5.72;100.00;103473.84;5033669;28;20025;-75
2021/12/16 06:58:09;;;;;;;16.75;5.93;;;;;;;5.71;100.00;103470.38;5037245;28;20081;-76
2021/12/16 07:00:41;;;;;;;17.80;7.40;;;;;;;5.90;100.00;103493.28;5035649;28;20060;-75
2021/12/16 07:03:17;;;;;;;16.10;7.53;;;;;;;5.82;100.00;103482.25;5035180;28;20102;-76
2021/12/16 07:05:44;;;;;;;13.68;6.40;;;;;;;5.98;100.00;103517.50;5035082;28;20052;-75
2021/12/16 07:08:15;;;;;;;10.88;5.65;;;;;;;5.99;100.00;103524.47;5034634;28;20032;-75
2021/12/16 07:10:45;;;;;;;14.75;4.82;;;;;;;5.98;100.00;103528.00;5038566;28;20048;-75
2021/12/16 07:13:18;;;;;;;10.40;6.40;;;;;;;6.05;100.00;103534.72;5039305;28;20126;-76
2021/12/16 07:15:44;;;;;;;8.88;4.90;;;;;;;6.09;100.00;103531.09;5036880;28;20079;-75
2021/12/16 07:18:10;;;;;;;16.42;6.07;;;;;;;6.11;100.00;103528.41;5033646;28;20521;-75
2021/12/16 07:20:36;;;;;;;12.60;5.32;;;;;;;6.08;100.00;103516.28;5039774;28;20115;-75
2021/12/16 07:23:05;;;;;;;16.13;5.22;;;;;;;6.15;100.00;103525.63;5031221;28;20032;-75
2021/12/16 07:25:31;;;;;;;11.13;5.25;;;;;;;6.20;100.00;103530.69;5036411;28;20026;-75
2021/12/16 07:27:57;;;;;;;13.48;5.97;;;;;;;6.07;100.00;103509.31;5035704;28;20025;-75
2021/12/16 07:30:23;;;;;;;25.40;7.90;;;;;;;6.24;100.00;103536.69;5034551;28;20611;-75
2021/12/16 07:32:50;;;;;;;16.20;6.32;;;;;;;6.25;100.00;103547.16;5034381;28;20156;-75
2021/12/16 07:35:19;;;;;;;15.40;6.25;;;;;;;6.26;100.00;103554.09;5040450;28;20406;-75
2021/12/16 07:37:45;;;;;;;10.40;4.53;;;;;;;6.14;100.00;103523.94;5034030;28;20115;-76
2021/12/16 07:40:13;;;;;;;17.30;6.80;;;;;;;6.29;100.00;103548.75;5032192;28;20456;-75
2021/12/16 07:42:58;;;;;;;13.80;5.57;;;;;;;6.22;100.00;103544.63;5036204;28;20111;-75
2021/12/16 07:45:25;;;;;;;16.05;5.82;;;;;;;6.36;100.00;103565.97;5048347;28;20024;-75
2021/12/16 07:47:51;;;;;;;13.15;6.05;;;;;;;6.29;100.00;103551.38;5034130;28;20040;-75
2021/12/16 07:50:17;;;;;;;19.25;6.40;;;;;;;6.33;100.00;103559.97;5023849;28;20041;-75
2021/12/16 07:52:43;;;;;;;26.25;6.38;;;;;;;6.34;100.00;103556.44;5036264;28;20043;-75
2021/12/16 07:55:12;;;;;;;17.30;6.72;;;;;;;6.43;100.00;103568.38;5026378;28;20040;-75
2021/12/16 07:57:38;;;;;;;20.83;7.07;;;;;;;6.42;100.00;103559.63;5035207;28;20406;-75
2021/12/16 08:00:19;;;;;;;16.90;6.40;;;;;;;6.43;100.00;103565.75;5046600;28;20044;-76
2021/12/16 08:02:44;;;;;;;10.60;6.03;;;;;;;6.39;100.00;103575.47;5038207;28;20028;-75
2021/12/16 08:05:10;;;;;;;12.52;6.43;;;;;;;6.49;100.00;103591.72;5048744;28;20029;-75
2021/12/16 08:07:37;;;;;;;13.40;5.95;;;;;;;6.48;100.00;103585.63;5037775;28;20032;-75
2021/12/16 08:10:05;;;;;;;14.95;6.97;;;;;;;6.51;100.00;103584.66;5036858;28;20025;-76
2021/12/16 08:12:31;;;;;;;25.17;7.40;;;;;;;6.53;100.00;103591.59;5052169;28;20037;-76
2021/12/16 08:14:57;;;;;;;12.98;7.05;;;;;;;6.56;100.00;103593.25;5032784;28;20082;-75
2021/12/16 08:17:22;;;;;;;18.60;7.07;;;;;;;6.57;100.00;103595.78;5034734;28;20036;-75
2021/12/16 08:19:48;;;;;;;18.20;6.70;;;;;;;6.59;100.00;103593.97;5042239;28;20029;-75
2021/12/16 08:22:15;;;;;;;14.88;7.50;;;;;;;6.59;100.00;103596.59;5037048;28;20041;-75
2021/12/16 08:24:41;;;;;;;12.80;6.70;;;;;;;6.50;100.00;103581.19;5039057;28;20033;-75
2021/12/16 08:27:08;;;;;;;21.38;7.05;;;;;;;6.65;100.00;103597.28;5037305;28;20048;-75
2021/12/16 08:29:34;;;;;;;15.43;6.95;;;;;;;6.65;100.00;103603.38;5039930;28;20055;-75
2021/12/16 08:31:59;;;;;;;14.25;6.45;;;;;;;6.61;100.00;103600.94;5045227;28;20030;-75
2021/12/16 08:34:27;;;;;;;10.98;6.25;;;;;;;6.69;100.00;103612.03;5036393;28;20046;-75
2021/12/16 08:36:53;;;;;;;16.33;6.22;;;;;;;6.66;100.00;103602.47;5039150;28;20047;-75
2021/12/16 08:39:19;;;;;;;16.73;8.15;;;;;;;6.72;100.00;103614.50;5024614;28;20032;-75
2021/12/16 08:41:49;;;;;;;14.43;6.47;;;;;;;6.68;100.00;103605.88;5039273;28;20043;-75
2021/12/16 08:44:16;;;;;;;17.23;6.00;;;;;;;6.75;100.00;103614.38;5039784;28;20029;-76
2021/12/16 08:46:45;;;;;;;11.50;6.22;;;;;;;6.75;100.00;103617.00;5036056;28;20060;-76
2021/12/16 08:49:10;;;;;;;11.70;6.35;;;;;;;6.69;100.00;103609.41;5043227;28;20036;-76
2021/12/16 08:51:43;;;;;;;10.00;6.25;;;;;;;6.75;100.00;103620.53;5046059;28;20037;-75
2021/12/16 08:54:09;;;;;;;17.00;6.82;;;;;;;6.77;100.00;103617.81;5044939;28;20029;-75
2021/12/16 08:56:35;;;;;;;11.60;6.35;;;;;;;6.77;100.00;103623.06;5034125;28;20047;-75
2021/12/16 08:59:02;;;;;;;11.23;6.47;;;;;;;6.80;100.00;103626.44;5044115;28;20035;-76
2021/12/16 09:01:31;;;;;;;15.05;7.22;;;;;;;6.82;100.00;103631.66;5035406;28;20370;-75
2021/12/16 09:03:57;;;;;;;12.35;6.45;;;;;;;6.83;100.00;103622.84;5039438;28;20430;-75
2021/12/16 09:06:23;;;;;;;31.85;8.52;;;;;;;6.88;100.00;103631.41;5035261;28;20041;-75
2021/12/16 09:08:49;;;;;;;23.70;7.03;;;;;;;6.74;100.00;103612.69;5043829;28;20385;-75
2021/12/16 09:11:20;;;;;;;15.77;6.82;;;;;;;6.84;100.00;103615.81;5034472;28;20171;-75
2021/12/16 09:13:47;;;;;;;15.30;7.25;;;;;;;6.97;100.00;103641.56;5035513;28;20033;-75
2021/12/16 09:16:16;;;;;;;22.15;8.20;;;;;;;7.03;100.00;103644.88;5037674;28;20025;-75
2021/12/16 09:18:42;;;;;;;14.27;8.00;;;;;;;6.98;100.00;103637.16;5036203;28;20429;-75
2021/12/16 09:21:18;;;;;;;17.55;8.88;;;;;;;7.14;100.00;103663.69;5039576;28;20500;-75
2021/12/16 09:23:49;;;;;;;18.88;7.95;;;;;;;7.21;100.00;103654.69;5038633;28;20020;-76
2021/12/16 09:26:16;;;;;;;16.40;8.05;;;;;;;7.27;100.00;103675.44;5038334;28;20036;-75
2021/12/16 09:28:42;;;;;;;17.08;8.40;;;;;;;7.16;100.00;103646.09;5039882;28;20032;-75
2021/12/16 09:31:11;;;;;;;18.20;7.70;;;;;;;7.30;100.00;103667.47;5045500;28;20408;-75
2021/12/16 09:33:43;;;;;;;34.70;9.60;;;;;;;7.24;100.00;103696.59;5047588;28;20031;-76
2021/12/16 09:36:11;;;;;;;30.90;8.30;;;;;;;7.19;100.00;103685.41;5041771;28;20026;-75
2021/12/16 09:38:37;;;;;;;21.27;9.93;;;;;;;7.22;100.00;103682.66;5035698;28;20088;-75
2021/12/16 09:41:03;;;;;;;21.98;9.05;;;;;;;7.27;100.00;103680.69;5049944;28;20036;-75
2021/12/16 09:43:33;;;;;;;20.42;8.48;;;;;;;7.28;100.00;103679.78;5040518;28;20028;-75
2021/12/16 09:46:03;;;;;;;25.25;9.38;;;;;;;7.51;100.00;103693.81;5042207;28;20022;-75
2021/12/16 09:48:31;;;;;;;28.80;8.63;;;;;;;7.53;100.00;103691.97;5048650;28;20016;-76
2021/12/16 09:50:57;;;;;;;24.27;7.95;;;;;;;7.65;100.00;103709.06;5042692;28;20111;-75
2021/12/16 09:53:23;;;;;;;18.40;8.40;;;;;;;7.70;100.00;103714.97;5038342;28;20042;-76
2021/12/16 09:55:57;;;;;;;15.65;7.65;;;;;;;7.60;100.00;103688.22;5040554;28;20047;-76
2021/12/16 09:58:23;;;;;;;12.82;6.70;;;;;;;7.76;100.00;103725.25;5041502;28;20393;-76
2021/12/16 10:00:48;;;;;;;20.00;7.63;;;;;;;7.81;100.00;103724.13;5035876;28;20503;-76
2021/12/16 10:03:14;;;;;;;22.70;8.57;;;;;;;7.63;100.00;103702.06;5038422;28;20119;-76
2021/12/16 10:05:40;;;;;;;17.65;7.32;;;;;;;7.72;100.00;103715.75;5035930;28;20038;-76
2021/12/16 10:08:08;;;;;;;18.83;8.07;;;;;;;7.85;100.00;103730.13;5041859;28;20421;-76
2021/12/16 10:10:35;;;;;;;19.42;8.90;;;;;;;7.76;100.00;103717.34;5040636;28;20040;-76
2021/12/16 10:13:03;;;;;;;19.45;7.68;;;;;;;7.76;100.00;103712.94;5039062;28;20034;-76
2021/12/16 10:18:11;;;;;;;25.80;8.40;;;;;;;7.90;100.00;103732.56;5036552;28;20488;-76
2021/12/16 10:20:58;;;;;;;21.58;8.65;;;;;;;7.86;100.00;103736.25;5044545;28;20021;-76
2021/12/16 10:23:26;;;;;;;16.70;7.93;;;;;;;7.82;100.00;103739.00;5060715;28;20041;-75
2021/12/16 10:25:55;;;;;;;25.23;9.40;;;;;;;7.83;100.00;103738.06;5039880;28;20025;-75
2021/12/16 10:28:24;;;;;;;26.27;8.55;;;;;;;7.55;100.00;103716.41;5051984;28;20156;-75
2021/12/16 10:31:07;;;;;;;13.77;6.97;;;;;;;7.68;100.00;103736.06;5040718;28;20115;-77
2021/12/16 10:33:40;;;;;;;27.20;8.35;;;;;;;7.72;100.00;103716.63;5043907;28;20029;-76
2021/12/16 10:36:16;;;;;;;24.27;7.47;;;;;;;7.86;100.00;103728.34;5037900;28;20552;-75
2021/12/16 10:39:00;;;;;;;18.23;8.27;;;;;;;7.83;100.00;103730.19;5045707;28;20086;-75
2021/12/16 10:41:47;;;;;;;19.55;7.70;;;;;;;7.79;100.00;103720.69;5039788;28;20036;-77
2021/12/16 10:44:30;;;;;;;26.77;8.95;;;;;;;7.89;100.00;103744.03;5045211;28;20108;-76
2021/12/16 10:47:13;;;;;;;19.33;7.35;;;;;;;7.84;100.00;103728.44;5039498;28;20443;-75
2021/12/16 10:49:49;;;;;;;18.42;7.10;;;;;;;7.96;100.00;103742.84;5032827;28;20555;-75
2021/12/16 10:52:23;;;;;;;18.45;7.07;;;;;;;8.00;100.00;103747.06;5034044;28;20017;-75
2021/12/16 10:54:50;;;;;;;29.52;7.63;;;;;;;7.99;100.00;103745.34;5045817;28;20029;-75
2021/12/16 10:57:18;;;;;;;16.20;7.68;;;;;;;8.07;100.00;103745.91;5034257;28;20049;-76
2021/12/16 10:59:48;;;;;;;24.23;8.05;;;;;;;8.10;100.00;103745.78;5048091;28;20392;-75
2021/12/16 11:02:21;;;;;;;15.90;7.28;;;;;;;8.14;100.00;103749.13;5058883;28;20646;-75
2021/12/16 11:04:49;;;;;;;22.33;7.15;;;;;;;8.14;100.00;103742.09;5049540;28;20043;-75
2021/12/16 11:07:25;;;;;;;20.23;9.07;;;;;;;8.06;100.00;103717.91;5048707;28;20033;-75
2021/12/16 11:10:20;;;;;;;17.38;7.30;;;;;;;8.26;100.00;103746.00;5035480;28;20096;-76
2021/12/16 11:13:01;;;;;;;15.82;7.15;;;;;;;8.28;100.00;103743.31;5043197;28;20054;-76
2021/12/16 11:15:48;;;;;;;23.10;8.60;;;;;;;8.30;100.00;103736.22;5035654;28;20056;-75
2021/12/16 11:18:25;;;;;;;21.23;8.02;;;;;;;8.32;100.00;103735.22;5037086;28;20032;-75
2021/12/16 11:20:57;;;;;;;23.83;7.68;;;;;;;8.31;100.00;103732.66;5039351;28;20151;-75
2021/12/16 11:23:33;;;;;;;15.27;8.13;;;;;;;8.40;100.00;103742.78;5034141;28;20021;-75
2021/12/16 11:26:04;;;;;;;16.77;7.50;;;;;;;8.44;100.00;103747.03;5040598;28;20382;-75
2021/12/16 11:28:35;;;;;;;27.95;8.55;;;;;;;8.47;100.00;103748.69;5031809;28;20945;-75
2021/12/16 11:31:11;;;;;;;27.55;9.07;;;;;;;8.45;100.00;103738.22;5038209;28;20044;-75
2021/12/16 11:33:59;;;;;;;20.73;7.25;;;;;;;8.37;100.00;103729.78;5044085;28;20017;-76
2021/12/16 11:36:29;;;;;;;21.95;7.07;;;;;;;8.45;100.00;103740.88;5036255;28;20493;-75
2021/12/16 11:39:02;;;;;;;26.52;9.27;;;;;;;8.52;100.00;103742.31;5034985;28;20029;-75
2021/12/16 11:41:31;;;;;;;32.30;8.98;;;;;;;8.48;100.00;103740.72;5043901;28;20037;-75
2021/12/16 11:44:17;;;;;;;47.35;10.32;;;;;;;8.25;100.00;103749.53;5035811;28;20040;-75
2021/12/16 11:46:49;;;;;;;27.50;10.63;;;;;;;8.20;100.00;103741.84;5041031;28;20485;-76
2021/12/16 11:49:22;;;;;;;22.45;9.20;;;;;;;8.16;100.00;103745.50;5032308;28;20398;-75
2021/12/16 11:52:11;;;;;;;35.45;10.07;;;;;;;8.15;100.00;103743.81;5042845;28;20028;-75
2021/12/16 11:54:47;;;;;;;23.27;9.32;;;;;;;8.19;100.00;103734.88;5030302;28;20041;-75
2021/12/16 11:57:23;;;;;;;34.20;8.98;;;;;;;8.08;100.00;103747.63;5038001;28;20048;-75
2021/12/16 11:59:55;;;;;;;17.85;8.32;;;;;;;8.09;100.00;103753.72;5035599;28;20029;-75
2021/12/16 12:02:42;;;;;;;23.27;8.38;;;;;;;8.08;100.00;103742.38;5033548;28;20021;-75
2021/12/16 12:05:20;;;;;;;33.90;8.93;;;;;;;8.08;100.00;103749.38;5031749;28;20036;-75
2021/12/16 12:07:55;;;;;;;21.95;7.75;;;;;;;8.11;100.00;103742.22;5035676;28;20204;-75
2021/12/16 12:10:38;;;;;;;29.13;8.20;;;;;;;8.01;100.00;103743.50;5038060;28;20036;-75
2021/12/16 12:13:07;;;;;;;27.75;7.80;;;;;;;8.09;100.00;103745.84;5040290;28;20065;-75
2021/12/16 12:15:49;;;;;;;43.38;9.35;;;;;;;8.06;100.00;103738.06;5043708;28;20035;-76
2021/12/16 12:18:49;;;;;;;34.67;7.95;;;;;;;7.98;100.00;103741.00;5038214;28;20033;-76
2021/12/16 12:21:20;;;;;;;23.80;8.18;;;;;;;8.09;100.00;103744.06;5042363;28;20049;-75
2021/12/16 12:23:48;;;;;;;23.08;8.27;;;;;;;8.15;100.00;103735.94;5034793;28;20045;-75
2021/12/16 12:26:16;;;;;;;17.77;7.45;;;;;;;8.12;100.00;103722.91;5037217;28;20076;-75
2021/12/16 12:28:44;;;;;;;26.98;8.13;;;;;;;8.09;100.00;103733.53;5038974;28;20489;-75
2021/12/16 12:31:10;;;;;;;42.42;9.77;;;;;;;8.09;100.00;103733.53;5032574;28;20104;-75
2021/12/16 12:33:35;;;;;;;24.40;8.10;;;;;;;7.86;100.00;103721.34;5045150;28;20132;-75
2021/12/16 12:36:01;;;;;;;28.67;8.80;;;;;;;7.88;100.00;103726.50;5039956;28;20017;-75
2021/12/16 12:38:28;;;;;;;31.55;7.72;;;;;;;7.94;100.00;103742.06;5037304;28;20034;-75
2021/12/16 12:40:54;;;;;;;13.38;8.00;;;;;;;7.89;100.00;103742.25;5035923;28;20025;-75
2021/12/16 12:43:22;;;;;;;19.85;8.45;;;;;;;8.09;100.00;103746.69;5035987;28;20297;-75
2021/12/16 12:45:48;;;;;;;25.92;8.35;;;;;;;8.04;100.00;103719.72;5034627;28;20108;-75
2021/12/16 12:48:17;;;;;;;15.43;9.15;;;;;;;8.19;100.00;103728.78;5037756;28;20020;-75
2021/12/16 12:50:46;;;;;;;15.00;7.03;;;;;;;8.32;100.00;103731.72;5044362;28;20029;-76
2021/12/16 12:53:26;;;;;;;16.75;8.30;;;;;;;8.39;100.00;103720.03;5038845;28;20028;-76
2021/12/16 12:55:56;;;;;;;19.85;9.65;;;;;;;8.48;100.00;103713.56;5039204;28;20032;-76
2021/12/16 12:58:28;;;;;;;22.10;10.23;;;;;;;8.48;100.00;103706.50;5042559;28;20410;-75
2021/12/16 13:01:12;;;;;;;23.13;9.02;;;;;;;8.38;100.00;103716.56;5043048;28;20028;-76
2021/12/16 13:03:40;;;;;;;15.18;8.20;;;;;;;8.40;100.00;103716.47;5041262;28;20494;-75
2021/12/16 13:06:16;;;;;;;20.20;8.40;;;;;;;8.33;100.00;103700.09;5038119;28;20033;-76
2021/12/16 13:08:45;;;;;;;32.67;8.75;;;;;;;8.38;100.00;103698.13;5053509;28;20532;-75
2021/12/16 13:11:13;;;;;;;20.10;8.30;;;;;;;8.48;100.00;103719.66;5046077;28;20061;-75
2021/12/16 13:14:30;;;;;;;16.95;8.55;;;;;;;8.53;100.00;103730.00;5036751;28;20127;-75
2021/12/16 13:28:48;;;;;;;16.00;8.45;;;;;;;8.58;100.00;103735.91;5039510;28;20039;-76
2021/12/16 13:31:37;;;;;;;17.40;8.13;;;;;;;8.56;100.00;103733.34;5038261;28;20053;-76
2021/12/16 13:34:03;;;;;;;15.13;7.97;;;;;;;8.57;100.00;103745.59;5049064;28;20033;-75
2021/12/16 13:36:47;;;;;;;17.77;8.73;;;;;;;8.58;100.00;103755.22;5033943;28;20555;-76
2021/12/16 13:39:22;;;;;;;17.75;7.95;;;;;;;8.62;100.00;103753.28;5037674;28;20065;-74
2021/12/16 13:42:06;;;;;;;18.52;8.25;;;;;;;8.64;100.00;103752.31;5052254;28;20043;-76
2021/12/16 13:44:46;;;;;;;16.40;8.05;;;;;;;8.65;100.00;103743.50;5038571;28;20025;-76
2021/12/16 13:47:32;;;;;;;14.63;7.63;;;;;;;8.68;100.00;103757.44;5037537;28;20032;-76
2021/12/16 14:03:19;;;;;;;18.45;8.95;;;;;;;8.79;100.00;103758.66;5039919;28;20391;-76
2021/12/16 14:08:39;;;;;;;18.10;8.23;;;;;;;8.79;100.00;103752.56;5038117;28;20375;-76
2021/12/16 14:14:29;;;;;;;16.83;7.88;;;;;;;8.75;100.00;103743.06;5039470;28;20048;-76
2021/12/16 14:25:37;;;;;;;28.48;9.27;;;;;;;8.67;100.00;103772.38;5038638;28;20537;-76
2021/12/16 14:47:17;;;;;;;23.02;9.40;;;;;;;8.72;100.00;103788.00;5035111;28;20049;-75
2021/12/16 14:49:46;;;;;;;22.00;8.77;;;;;;;8.73;100.00;103784.41;5033565;28;20021;-76
2021/12/16 14:52:39;;;;;;;18.85;8.20;;;;;;;8.71;100.00;103783.63;5038258;28;20033;-75
2021/12/16 14:55:16;;;;;;;16.63;9.45;;;;;;;8.65;100.00;103787.41;5033035;28;20689;-76
2021/12/16 14:57:44;;;;;;;18.80;7.55;;;;;;;8.70;100.00;103797.72;5035654;28;20045;-75
2021/12/16 15:00:12;;;;;;;20.83;8.18;;;;;;;8.69;100.00;103801.25;5046014;28;20408;-75
2021/12/16 15:02:40;;;;;;;30.15;7.95;;;;;;;8.65;100.00;103805.81;5042943;28;20032;-75
2021/12/16 15:05:24;;;;;;;24.27;8.20;;;;;;;8.63;100.00;103797.97;5058146;28;20040;-75